sensor_id;sensor_type;location;lat;lon;timestamp;P1;durP1;ratioP1;P2;durP2;ratioP2
45548;SDS011;31270;48.328;10.096;2023-12-20T00:00:56;5.57;;;3.90;;
45548;SDS011;31270;48.328;10.096;2023-12-20T00:03:22;4.77;;;4.10;;
45548;SDS011;31270;48.328;10.096;2023-12-20T00:05:49;4.83;;;3.30;;
45548;SDS011;31270;48.328;10.096;2023-12-20T00:08:15;8.63;;;4.27;;
45548;SDS011;31270;48.328;10.096;2023-12-20T00:10:41;6.07;;;4.90;;
45548;SDS011;31270;48.328;10.096;2023-12-20T00:13:07;6.50;;;4.87;;
45548;SDS011;31270;48.328;10.096;2023-12-20T00:15:33;7.70;;;6.00;;
45548;SDS011;31270;48.328;10.096;2023-12-20T00:17:58;8.23;;;7.00;;
45548;SDS011;31270;48.328;10.096;2023-12-20T00:20:24;5.50;;;4.60;;
45548;SDS011;31270;48.328;10.096;2023-12-20T00:22:50;8.33;;;6.73;;
45548;SDS011;31270;48.328;10.096;2023-12-20T00:25:15;8.73;;;6.63;;
45548;SDS011;31270;48.328;10.096;2023-12-20T00:27:41;10.73;;;7.07;;
45548;SDS011;31270;48.328;10.096;2023-12-20T00:30:07;8.33;;;5.57;;
45548;SDS011;31270;48.328;10.096;2023-12-20T00:32:34;7.63;;;5.50;;
45548;SDS011;31270;48.328;10.096;2023-12-20T00:35:00;9.97;;;7.20;;
45548;SDS011;31270;48.328;10.096;2023-12-20T00:37:26;7.27;;;5.97;;
45548;SDS011;31270;48.328;10.096;2023-12-20T00:39:51;10.17;;;5.83;;
45548;SDS011;31270;48.328;10.096;2023-12-20T00:42:17;7.17;;;5.97;;
45548;SDS011;31270;48.328;10.096;2023-12-20T00:44:42;6.13;;;4.80;;
45548;SDS011;31270;48.328;10.096;2023-12-20T00:47:08;5.73;;;4.10;;
45548;SDS011;31270;48.328;10.096;2023-12-20T00:49:33;5.53;;;3.90;;
45548;SDS011;31270;48.328;10.096;2023-12-20T00:51:59;5.53;;;3.60;;
45548;SDS011;31270;48.328;10.096;2023-12-20T00:54:25;5.07;;;4.03;;
45548;SDS011;31270;48.328;10.096;2023-12-20T00:56:51;5.37;;;4.10;;
45548;SDS011;31270;48.328;10.096;2023-12-20T00:59:16;6.43;;;4.50;;
45548;SDS011;31270;48.328;10.096;2023-12-20T01:01:43;5.73;;;3.97;;
45548;SDS011;31270;48.328;10.096;2023-12-20T01:04:08;4.93;;;3.80;;
45548;SDS011;31270;48.328;10.096;2023-12-20T01:06:34;4.97;;;3.63;;
45548;SDS011;31270;48.328;10.096;2023-12-20T01:08:59;7.23;;;3.83;;
45548;SDS011;31270;48.328;10.096;2023-12-20T01:11:25;4.70;;;3.80;;
45548;SDS011;31270;48.328;10.096;2023-12-20T01:13:50;6.70;;;4.30;;
45548;SDS011;31270;48.328;10.096;2023-12-20T01:16:16;4.70;;;3.83;;
45548;SDS011;31270;48.328;10.096;2023-12-20T01:18:42;5.97;;;4.03;;
45548;SDS011;31270;48.328;10.096;2023-12-20T01:21:07;4.63;;;3.80;;
45548;SDS011;31270;48.328;10.096;2023-12-20T01:23:33;4.90;;;3.93;;
45548;SDS011;31270;48.328;10.096;2023-12-20T01:25:58;5.73;;;4.47;;
45548;SDS011;31270;48.328;10.096;2023-12-20T01:28:28;5.47;;;4.50;;
45548;SDS011;31270;48.328;10.096;2023-12-20T01:30:53;6.57;;;5.70;;
45548;SDS011;31270;48.328;10.096;2023-12-20T01:33:19;8.30;;;6.43;;
45548;SDS011;31270;48.328;10.096;2023-12-20T01:35:45;12.00;;;7.70;;
45548;SDS011;31270;48.328;10.096;2023-12-20T01:38:10;11.53;;;8.60;;
45548;SDS011;31270;48.328;10.096;2023-12-20T01:40:36;7.47;;;6.00;;
45548;SDS011;31270;48.328;10.096;2023-12-20T01:43:02;7.23;;;5.40;;
45548;SDS011;31270;48.328;10.096;2023-12-20T01:45:31;6.10;;;4.33;;
45548;SDS011;31270;48.328;10.096;2023-12-20T01:47:57;6.63;;;5.10;;
45548;SDS011;31270;48.328;10.096;2023-12-20T01:50:24;7.80;;;6.53;;
45548;SDS011;31270;48.328;10.096;2023-12-20T01:52:50;8.87;;;6.30;;
45548;SDS011;31270;48.328;10.096;2023-12-20T01:55:20;6.43;;;5.23;;
45548;SDS011;31270;48.328;10.096;2023-12-20T01:57:46;7.30;;;5.20;;
45548;SDS011;31270;48.328;10.096;2023-12-20T02:00:12;9.30;;;7.60;;
45548;SDS011;31270;48.328;10.096;2023-12-20T02:02:39;9.80;;;6.20;;
45548;SDS011;31270;48.328;10.096;2023-12-20T02:05:06;8.27;;;6.77;;
45548;SDS011;31270;48.328;10.096;2023-12-20T02:07:33;8.50;;;6.90;;
45548;SDS011;31270;48.328;10.096;2023-12-20T02:10:00;8.37;;;6.73;;
45548;SDS011;31270;48.328;10.096;2023-12-20T02:12:26;7.27;;;5.37;;
45548;SDS011;31270;48.328;10.096;2023-12-20T02:14:52;11.03;;;5.57;;
45548;SDS011;31270;48.328;10.096;2023-12-20T02:17:19;5.63;;;5.00;;
45548;SDS011;31270;48.328;10.096;2023-12-20T02:19:45;6.90;;;5.30;;
45548;SDS011;31270;48.328;10.096;2023-12-20T02:22:11;7.57;;;5.80;;
45548;SDS011;31270;48.328;10.096;2023-12-20T02:24:37;9.80;;;7.37;;
45548;SDS011;31270;48.328;10.096;2023-12-20T02:27:03;9.07;;;7.07;;
45548;SDS011;31270;48.328;10.096;2023-12-20T02:29:30;8.77;;;7.13;;
45548;SDS011;31270;48.328;10.096;2023-12-20T02:35:18;7.00;;;5.80;;
45548;SDS011;31270;48.328;10.096;2023-12-20T02:37:43;12.67;;;9.73;;
45548;SDS011;31270;48.328;10.096;2023-12-20T02:40:09;14.10;;;10.40;;
45548;SDS011;31270;48.328;10.096;2023-12-20T02:42:35;13.03;;;10.93;;
45548;SDS011;31270;48.328;10.096;2023-12-20T02:45:01;10.87;;;7.93;;
45548;SDS011;31270;48.328;10.096;2023-12-20T02:47:26;11.73;;;9.27;;
45548;SDS011;31270;48.328;10.096;2023-12-20T02:49:52;13.60;;;8.60;;
45548;SDS011;31270;48.328;10.096;2023-12-20T02:52:18;11.27;;;9.57;;
45548;SDS011;31270;48.328;10.096;2023-12-20T02:54:43;15.97;;;11.53;;
45548;SDS011;31270;48.328;10.096;2023-12-20T02:57:09;13.77;;;10.77;;
45548;SDS011;31270;48.328;10.096;2023-12-20T02:59:34;17.40;;;13.43;;
45548;SDS011;31270;48.328;10.096;2023-12-20T03:02:00;19.07;;;12.53;;
45548;SDS011;31270;48.328;10.096;2023-12-20T03:04:26;16.57;;;10.43;;
45548;SDS011;31270;48.328;10.096;2023-12-20T03:06:51;22.23;;;16.93;;
45548;SDS011;31270;48.328;10.096;2023-12-20T03:09:17;13.53;;;9.90;;
45548;SDS011;31270;48.328;10.096;2023-12-20T03:11:42;11.20;;;9.20;;
45548;SDS011;31270;48.328;10.096;2023-12-20T03:14:08;17.00;;;12.57;;
45548;SDS011;31270;48.328;10.096;2023-12-20T03:16:33;12.47;;;10.30;;
45548;SDS011;31270;48.328;10.096;2023-12-20T03:18:59;8.93;;;6.70;;
45548;SDS011;31270;48.328;10.096;2023-12-20T03:21:25;6.73;;;4.70;;
45548;SDS011;31270;48.328;10.096;2023-12-20T03:23:50;9.03;;;6.50;;
45548;SDS011;31270;48.328;10.096;2023-12-20T03:26:16;8.40;;;6.77;;
45548;SDS011;31270;48.328;10.096;2023-12-20T03:28:42;7.70;;;5.77;;
45548;SDS011;31270;48.328;10.096;2023-12-20T03:31:09;12.17;;;8.23;;
45548;SDS011;31270;48.328;10.096;2023-12-20T03:33:35;11.10;;;8.33;;
45548;SDS011;31270;48.328;10.096;2023-12-20T03:36:00;11.47;;;8.33;;
45548;SDS011;31270;48.328;10.096;2023-12-20T03:38:26;8.60;;;7.37;;
45548;SDS011;31270;48.328;10.096;2023-12-20T03:40:52;7.97;;;5.87;;
45548;SDS011;31270;48.328;10.096;2023-12-20T03:43:17;8.33;;;5.70;;
45548;SDS011;31270;48.328;10.096;2023-12-20T03:45:43;7.53;;;5.70;;
45548;SDS011;31270;48.328;10.096;2023-12-20T03:48:09;10.13;;;7.37;;
45548;SDS011;31270;48.328;10.096;2023-12-20T03:50:34;10.20;;;7.43;;
45548;SDS011;31270;48.328;10.096;2023-12-20T03:53:00;9.20;;;7.10;;
45548;SDS011;31270;48.328;10.096;2023-12-20T03:55:26;10.60;;;5.83;;
45548;SDS011;31270;48.328;10.096;2023-12-20T03:57:51;7.87;;;5.63;;
45548;SDS011;31270;48.328;10.096;2023-12-20T04:00:17;9.60;;;7.27;;
45548;SDS011;31270;48.328;10.096;2023-12-20T04:02:43;8.00;;;6.20;;
45548;SDS011;31270;48.328;10.096;2023-12-20T04:05:09;9.03;;;5.50;;
45548;SDS011;31270;48.328;10.096;2023-12-20T04:07:35;7.10;;;4.93;;
45548;SDS011;31270;48.328;10.096;2023-12-20T04:10:01;8.30;;;5.40;;
45548;SDS011;31270;48.328;10.096;2023-12-20T04:12:28;7.50;;;5.17;;
45548;SDS011;31270;48.328;10.096;2023-12-20T04:14:54;6.10;;;4.47;;
45548;SDS011;31270;48.328;10.096;2023-12-20T04:17:20;7.20;;;4.87;;
45548;SDS011;31270;48.328;10.096;2023-12-20T04:19:48;9.57;;;5.30;;
45548;SDS011;31270;48.328;10.096;2023-12-20T04:22:14;9.70;;;5.73;;
45548;SDS011;31270;48.328;10.096;2023-12-20T04:24:39;6.10;;;4.83;;
45548;SDS011;31270;48.328;10.096;2023-12-20T04:27:07;6.97;;;4.97;;
45548;SDS011;31270;48.328;10.096;2023-12-20T04:29:33;8.03;;;5.67;;
45548;SDS011;31270;48.328;10.096;2023-12-20T04:31:59;7.30;;;5.00;;
45548;SDS011;31270;48.328;10.096;2023-12-20T04:34:25;6.97;;;5.37;;
45548;SDS011;31270;48.328;10.096;2023-12-20T04:36:51;5.90;;;4.53;;
45548;SDS011;31270;48.328;10.096;2023-12-20T04:39:17;7.03;;;5.50;;
45548;SDS011;31270;48.328;10.096;2023-12-20T04:41:42;8.50;;;5.70;;
45548;SDS011;31270;48.328;10.096;2023-12-20T04:44:08;7.70;;;5.80;;
45548;SDS011;31270;48.328;10.096;2023-12-20T04:46:34;6.70;;;4.53;;
45548;SDS011;31270;48.328;10.096;2023-12-20T04:49:00;7.43;;;4.80;;
45548;SDS011;31270;48.328;10.096;2023-12-20T04:51:26;7.10;;;5.03;;
45548;SDS011;31270;48.328;10.096;2023-12-20T04:53:52;6.97;;;4.83;;
45548;SDS011;31270;48.328;10.096;2023-12-20T04:56:17;9.30;;;6.90;;
45548;SDS011;31270;48.328;10.096;2023-12-20T04:58:43;9.53;;;6.80;;
45548;SDS011;31270;48.328;10.096;2023-12-20T05:01:09;9.20;;;6.00;;
45548;SDS011;31270;48.328;10.096;2023-12-20T05:03:35;10.23;;;5.00;;
45548;SDS011;31270;48.328;10.096;2023-12-20T05:06:01;7.03;;;5.17;;
45548;SDS011;31270;48.328;10.096;2023-12-20T05:08:27;5.57;;;4.17;;
45548;SDS011;31270;48.328;10.096;2023-12-20T05:10:55;5.47;;;4.53;;
45548;SDS011;31270;48.328;10.096;2023-12-20T05:13:21;5.10;;;4.10;;
45548;SDS011;31270;48.328;10.096;2023-12-20T05:15:47;5.57;;;4.77;;
45548;SDS011;31270;48.328;10.096;2023-12-20T05:18:13;8.00;;;3.97;;
45548;SDS011;31270;48.328;10.096;2023-12-20T05:20:38;7.47;;;4.80;;
45548;SDS011;31270;48.328;10.096;2023-12-20T05:23:04;4.70;;;3.77;;
45548;SDS011;31270;48.328;10.096;2023-12-20T05:25:30;4.60;;;3.93;;
45548;SDS011;31270;48.328;10.096;2023-12-20T05:27:56;4.60;;;3.40;;
45548;SDS011;31270;48.328;10.096;2023-12-20T05:30:21;5.67;;;3.67;;
45548;SDS011;31270;48.328;10.096;2023-12-20T05:32:47;9.13;;;5.87;;
45548;SDS011;31270;48.328;10.096;2023-12-20T05:35:13;4.87;;;3.67;;
45548;SDS011;31270;48.328;10.096;2023-12-20T05:37:39;4.90;;;3.70;;
45548;SDS011;31270;48.328;10.096;2023-12-20T05:40:04;5.77;;;3.90;;
45548;SDS011;31270;48.328;10.096;2023-12-20T05:42:31;5.43;;;3.57;;
45548;SDS011;31270;48.328;10.096;2023-12-20T05:44:57;7.50;;;4.43;;
45548;SDS011;31270;48.328;10.096;2023-12-20T05:47:22;6.70;;;4.07;;
45548;SDS011;31270;48.328;10.096;2023-12-20T05:49:48;6.03;;;4.13;;
45548;SDS011;31270;48.328;10.096;2023-12-20T05:52:15;5.50;;;4.30;;
45548;SDS011;31270;48.328;10.096;2023-12-20T05:54:40;7.30;;;4.20;;
45548;SDS011;31270;48.328;10.096;2023-12-20T05:57:06;6.20;;;4.70;;
45548;SDS011;31270;48.328;10.096;2023-12-20T05:59:32;7.77;;;5.30;;
45548;SDS011;31270;48.328;10.096;2023-12-20T06:01:57;8.23;;;5.33;;
45548;SDS011;31270;48.328;10.096;2023-12-20T06:04:23;7.90;;;5.00;;
45548;SDS011;31270;48.328;10.096;2023-12-20T06:06:48;10.87;;;5.00;;
45548;SDS011;31270;48.328;10.096;2023-12-20T06:09:14;7.93;;;5.40;;
45548;SDS011;31270;48.328;10.096;2023-12-20T06:11:40;9.23;;;6.03;;
45548;SDS011;31270;48.328;10.096;2023-12-20T06:14:06;7.37;;;5.23;;
45548;SDS011;31270;48.328;10.096;2023-12-20T06:16:31;8.00;;;5.70;;
45548;SDS011;31270;48.328;10.096;2023-12-20T06:18:57;7.57;;;5.03;;
45548;SDS011;31270;48.328;10.096;2023-12-20T06:21:24;8.17;;;5.47;;
45548;SDS011;31270;48.328;10.096;2023-12-20T06:23:50;9.50;;;5.60;;
45548;SDS011;31270;48.328;10.096;2023-12-20T06:26:16;8.17;;;5.77;;
45548;SDS011;31270;48.328;10.096;2023-12-20T06:28:41;9.87;;;6.03;;
45548;SDS011;31270;48.328;10.096;2023-12-20T06:31:07;8.60;;;6.00;;
45548;SDS011;31270;48.328;10.096;2023-12-20T06:33:33;9.73;;;6.50;;
45548;SDS011;31270;48.328;10.096;2023-12-20T06:35:59;9.60;;;6.03;;
45548;SDS011;31270;48.328;10.096;2023-12-20T06:38:26;9.60;;;6.67;;
45548;SDS011;31270;48.328;10.096;2023-12-20T06:40:51;9.00;;;6.63;;
45548;SDS011;31270;48.328;10.096;2023-12-20T06:43:17;10.47;;;7.40;;
45548;SDS011;31270;48.328;10.096;2023-12-20T06:45:49;11.43;;;8.03;;
45548;SDS011;31270;48.328;10.096;2023-12-20T06:48:16;10.13;;;7.37;;
45548;SDS011;31270;48.328;10.096;2023-12-20T06:50:41;10.70;;;7.60;;
45548;SDS011;31270;48.328;10.096;2023-12-20T06:53:07;13.43;;;7.20;;
45548;SDS011;31270;48.328;10.096;2023-12-20T06:55:33;11.60;;;7.50;;
45548;SDS011;31270;48.328;10.096;2023-12-20T06:58:00;11.60;;;7.53;;
45548;SDS011;31270;48.328;10.096;2023-12-20T07:00:27;10.30;;;7.13;;
45548;SDS011;31270;48.328;10.096;2023-12-20T07:02:54;11.07;;;7.67;;
45548;SDS011;31270;48.328;10.096;2023-12-20T07:05:20;13.47;;;8.57;;
45548;SDS011;31270;48.328;10.096;2023-12-20T07:07:46;11.53;;;8.00;;
45548;SDS011;31270;48.328;10.096;2023-12-20T07:10:12;12.17;;;7.87;;
45548;SDS011;31270;48.328;10.096;2023-12-20T07:12:38;10.20;;;7.50;;
45548;SDS011;31270;48.328;10.096;2023-12-20T07:15:04;10.30;;;7.23;;
45548;SDS011;31270;48.328;10.096;2023-12-20T07:17:32;12.00;;;8.03;;
45548;SDS011;31270;48.328;10.096;2023-12-20T07:19:58;10.90;;;7.70;;
45548;SDS011;31270;48.328;10.096;2023-12-20T07:22:24;11.80;;;7.67;;
45548;SDS011;31270;48.328;10.096;2023-12-20T07:24:49;12.93;;;8.00;;
45548;SDS011;31270;48.328;10.096;2023-12-20T07:27:17;14.83;;;8.60;;
45548;SDS011;31270;48.328;10.096;2023-12-20T07:29:43;12.07;;;8.23;;
45548;SDS011;31270;48.328;10.096;2023-12-20T07:32:08;9.93;;;7.10;;
45548;SDS011;31270;48.328;10.096;2023-12-20T07:34:34;11.77;;;8.23;;
45548;SDS011;31270;48.328;10.096;2023-12-20T07:37:00;13.90;;;8.40;;
45548;SDS011;31270;48.328;10.096;2023-12-20T07:39:25;10.93;;;7.77;;
45548;SDS011;31270;48.328;10.096;2023-12-20T07:41:51;11.90;;;7.87;;
45548;SDS011;31270;48.328;10.096;2023-12-20T07:44:16;12.97;;;7.73;;
45548;SDS011;31270;48.328;10.096;2023-12-20T07:46:42;11.07;;;7.80;;
45548;SDS011;31270;48.328;10.096;2023-12-20T07:49:08;14.43;;;9.27;;
45548;SDS011;31270;48.328;10.096;2023-12-20T07:51:35;12.30;;;8.23;;
45548;SDS011;31270;48.328;10.096;2023-12-20T07:54:00;11.87;;;8.23;;
45548;SDS011;31270;48.328;10.096;2023-12-20T07:56:26;11.47;;;8.20;;
45548;SDS011;31270;48.328;10.096;2023-12-20T07:58:51;13.17;;;8.50;;
45548;SDS011;31270;48.328;10.096;2023-12-20T08:01:17;17.93;;;9.33;;
45548;SDS011;31270;48.328;10.096;2023-12-20T08:03:43;11.97;;;8.23;;
45548;SDS011;31270;48.328;10.096;2023-12-20T08:06:10;10.73;;;8.00;;
45548;SDS011;31270;48.328;10.096;2023-12-20T08:08:36;10.97;;;7.63;;
45548;SDS011;31270;48.328;10.096;2023-12-20T08:11:01;11.80;;;8.07;;
45548;SDS011;31270;48.328;10.096;2023-12-20T08:13:27;13.27;;;8.50;;
45548;SDS011;31270;48.328;10.096;2023-12-20T08:15:53;12.90;;;8.53;;
45548;SDS011;31270;48.328;10.096;2023-12-20T08:18:20;12.87;;;8.27;;
45548;SDS011;31270;48.328;10.096;2023-12-20T08:20:47;12.87;;;8.80;;
45548;SDS011;31270;48.328;10.096;2023-12-20T08:23:13;11.10;;;7.80;;
45548;SDS011;31270;48.328;10.096;2023-12-20T08:25:39;12.77;;;8.07;;
45548;SDS011;31270;48.328;10.096;2023-12-20T08:28:04;13.03;;;8.40;;
45548;SDS011;31270;48.328;10.096;2023-12-20T08:30:30;13.13;;;8.90;;
45548;SDS011;31270;48.328;10.096;2023-12-20T08:32:59;12.30;;;7.60;;
45548;SDS011;31270;48.328;10.096;2023-12-20T08:35:25;13.60;;;8.50;;
45548;SDS011;31270;48.328;10.096;2023-12-20T08:37:50;11.10;;;7.70;;
45548;SDS011;31270;48.328;10.096;2023-12-20T08:40:16;13.57;;;8.43;;
45548;SDS011;31270;48.328;10.096;2023-12-20T08:42:42;13.57;;;9.33;;
45548;SDS011;31270;48.328;10.096;2023-12-20T08:45:08;12.23;;;8.67;;
45548;SDS011;31270;48.328;10.096;2023-12-20T08:47:34;12.97;;;8.23;;
45548;SDS011;31270;48.328;10.096;2023-12-20T08:49:59;13.37;;;8.50;;
45548;SDS011;31270;48.328;10.096;2023-12-20T08:52:26;13.50;;;8.50;;
45548;SDS011;31270;48.328;10.096;2023-12-20T08:54:52;12.43;;;8.20;;
45548;SDS011;31270;48.328;10.096;2023-12-20T08:57:21;15.73;;;9.00;;
45548;SDS011;31270;48.328;10.096;2023-12-20T08:59:49;15.30;;;9.20;;
45548;SDS011;31270;48.328;10.096;2023-12-20T09:02:15;13.97;;;8.87;;
45548;SDS011;31270;48.328;10.096;2023-12-20T09:04:41;14.10;;;9.00;;
45548;SDS011;31270;48.328;10.096;2023-12-20T09:07:20;15.13;;;9.03;;
45548;SDS011;31270;48.328;10.096;2023-12-20T09:09:46;14.20;;;9.20;;
45548;SDS011;31270;48.328;10.096;2023-12-20T09:12:12;12.40;;;8.37;;
45548;SDS011;31270;48.328;10.096;2023-12-20T09:14:37;10.90;;;8.53;;
45548;SDS011;31270;48.328;10.096;2023-12-20T09:17:03;11.90;;;8.10;;
45548;SDS011;31270;48.328;10.096;2023-12-20T09:19:29;13.80;;;8.93;;
45548;SDS011;31270;48.328;10.096;2023-12-20T09:21:54;12.30;;;8.17;;
45548;SDS011;31270;48.328;10.096;2023-12-20T09:24:20;11.90;;;8.17;;
45548;SDS011;31270;48.328;10.096;2023-12-20T09:26:46;12.73;;;8.67;;
45548;SDS011;31270;48.328;10.096;2023-12-20T09:29:17;14.33;;;8.80;;
45548;SDS011;31270;48.328;10.096;2023-12-20T09:31:44;14.07;;;8.60;;
45548;SDS011;31270;48.328;10.096;2023-12-20T09:34:11;14.47;;;8.37;;
45548;SDS011;31270;48.328;10.096;2023-12-20T09:36:39;13.53;;;8.97;;
45548;SDS011;31270;48.328;10.096;2023-12-20T09:39:11;12.30;;;8.20;;
45548;SDS011;31270;48.328;10.096;2023-12-20T09:41:37;13.13;;;9.00;;
45548;SDS011;31270;48.328;10.096;2023-12-20T09:44:08;13.27;;;8.77;;
45548;SDS011;31270;48.328;10.096;2023-12-20T09:46:35;13.60;;;8.57;;
45548;SDS011;31270;48.328;10.096;2023-12-20T09:49:04;11.90;;;8.57;;
45548;SDS011;31270;48.328;10.096;2023-12-20T09:51:31;11.60;;;8.33;;
45548;SDS011;31270;48.328;10.096;2023-12-20T09:53:57;11.20;;;7.73;;
45548;SDS011;31270;48.328;10.096;2023-12-20T09:56:24;10.93;;;7.67;;
45548;SDS011;31270;48.328;10.096;2023-12-20T09:58:51;11.50;;;7.73;;
45548;SDS011;31270;48.328;10.096;2023-12-20T10:01:16;10.70;;;7.07;;
45548;SDS011;31270;48.328;10.096;2023-12-20T10:03:43;10.47;;;7.00;;
45548;SDS011;31270;48.328;10.096;2023-12-20T10:06:10;10.17;;;6.97;;
45548;SDS011;31270;48.328;10.096;2023-12-20T10:08:36;8.90;;;6.90;;
45548;SDS011;31270;48.328;10.096;2023-12-20T10:11:02;9.17;;;6.83;;
45548;SDS011;31270;48.328;10.096;2023-12-20T10:13:29;9.63;;;6.70;;
45548;SDS011;31270;48.328;10.096;2023-12-20T10:15:55;10.27;;;7.20;;
45548;SDS011;31270;48.328;10.096;2023-12-20T10:18:20;8.17;;;6.70;;
45548;SDS011;31270;48.328;10.096;2023-12-20T10:20:46;9.07;;;6.30;;
45548;SDS011;31270;48.328;10.096;2023-12-20T10:23:12;8.27;;;6.13;;
45548;SDS011;31270;48.328;10.096;2023-12-20T10:25:39;9.37;;;7.20;;
45548;SDS011;31270;48.328;10.096;2023-12-20T10:28:10;9.27;;;6.77;;
45548;SDS011;31270;48.328;10.096;2023-12-20T10:30:37;10.37;;;6.80;;
45548;SDS011;31270;48.328;10.096;2023-12-20T10:33:05;8.00;;;5.90;;
45548;SDS011;31270;48.328;10.096;2023-12-20T10:35:34;8.47;;;6.00;;
45548;SDS011;31270;48.328;10.096;2023-12-20T10:38:02;8.80;;;5.60;;
45548;SDS011;31270;48.328;10.096;2023-12-20T10:40:29;8.20;;;6.10;;
45548;SDS011;31270;48.328;10.096;2023-12-20T10:42:55;8.97;;;5.90;;
45548;SDS011;31270;48.328;10.096;2023-12-20T10:45:23;10.90;;;5.97;;
45548;SDS011;31270;48.328;10.096;2023-12-20T10:47:49;6.50;;;5.07;;
45548;SDS011;31270;48.328;10.096;2023-12-20T10:50:15;5.60;;;4.90;;
45548;SDS011;31270;48.328;10.096;2023-12-20T10:52:41;8.17;;;4.83;;
45548;SDS011;31270;48.328;10.096;2023-12-20T10:55:09;5.63;;;4.30;;
45548;SDS011;31270;48.328;10.096;2023-12-20T10:57:35;6.07;;;4.77;;
45548;SDS011;31270;48.328;10.096;2023-12-20T11:00:02;5.00;;;3.80;;
45548;SDS011;31270;48.328;10.096;2023-12-20T11:02:29;4.13;;;3.30;;
45548;SDS011;31270;48.328;10.096;2023-12-20T11:05:10;2.93;;;2.33;;
45548;SDS011;31270;48.328;10.096;2023-12-20T11:07:52;2.60;;;2.30;;
45548;SDS011;31270;48.328;10.096;2023-12-20T11:10:34;2.40;;;1.80;;
45548;SDS011;31270;48.328;10.096;2023-12-20T11:16:09;6.87;;;2.43;;
45548;SDS011;31270;48.328;10.096;2023-12-20T11:18:35;3.83;;;3.07;;
45548;SDS011;31270;48.328;10.096;2023-12-20T11:21:02;4.90;;;2.47;;
45548;SDS011;31270;48.328;10.096;2023-12-20T11:23:29;4.57;;;2.70;;
45548;SDS011;31270;48.328;10.096;2023-12-20T11:25:59;5.10;;;2.53;;
45548;SDS011;31270;48.328;10.096;2023-12-20T11:28:26;3.00;;;2.53;;
45548;SDS011;31270;48.328;10.096;2023-12-20T11:30:56;3.00;;;2.00;;
45548;SDS011;31270;48.328;10.096;2023-12-20T11:33:36;4.37;;;2.50;;
45548;SDS011;31270;48.328;10.096;2023-12-20T11:36:02;3.00;;;2.40;;
45548;SDS011;31270;48.328;10.096;2023-12-20T11:38:35;3.67;;;2.70;;
45548;SDS011;31270;48.328;10.096;2023-12-20T11:41:02;4.83;;;2.50;;
45548;SDS011;31270;48.328;10.096;2023-12-20T11:43:31;4.57;;;2.43;;
45548;SDS011;31270;48.328;10.096;2023-12-20T11:46:07;2.33;;;1.97;;
45548;SDS011;31270;48.328;10.096;2023-12-20T11:48:37;4.53;;;2.50;;
45548;SDS011;31270;48.328;10.096;2023-12-20T11:51:11;3.70;;;2.10;;
45548;SDS011;31270;48.328;10.096;2023-12-20T11:53:38;3.40;;;2.83;;
45548;SDS011;31270;48.328;10.096;2023-12-20T11:56:08;3.20;;;2.10;;
45548;SDS011;31270;48.328;10.096;2023-12-20T11:58:34;4.10;;;2.57;;
45548;SDS011;31270;48.328;10.096;2023-12-20T12:01:01;4.43;;;2.60;;
45548;SDS011;31270;48.328;10.096;2023-12-20T12:03:32;3.20;;;2.10;;
45548;SDS011;31270;48.328;10.096;2023-12-20T12:05:57;4.27;;;2.00;;
45548;SDS011;31270;48.328;10.096;2023-12-20T12:08:23;3.63;;;2.40;;
45548;SDS011;31270;48.328;10.096;2023-12-20T12:10:49;3.33;;;2.13;;
45548;SDS011;31270;48.328;10.096;2023-12-20T12:13:14;2.93;;;2.00;;
45548;SDS011;31270;48.328;10.096;2023-12-20T12:15:40;2.73;;;2.07;;
45548;SDS011;31270;48.328;10.096;2023-12-20T12:18:07;2.10;;;1.80;;
45548;SDS011;31270;48.328;10.096;2023-12-20T12:20:33;3.77;;;2.57;;
45548;SDS011;31270;48.328;10.096;2023-12-20T12:22:59;2.20;;;2.00;;
45548;SDS011;31270;48.328;10.096;2023-12-20T12:25:26;2.90;;;2.47;;
45548;SDS011;31270;48.328;10.096;2023-12-20T12:27:53;8.20;;;2.10;;
45548;SDS011;31270;48.328;10.096;2023-12-20T12:30:19;2.43;;;2.07;;
45548;SDS011;31270;48.328;10.096;2023-12-20T12:32:44;5.73;;;1.93;;
45548;SDS011;31270;48.328;10.096;2023-12-20T12:35:10;2.83;;;2.03;;
45548;SDS011;31270;48.328;10.096;2023-12-20T12:37:39;5.03;;;2.07;;
45548;SDS011;31270;48.328;10.096;2023-12-20T12:40:10;3.17;;;1.83;;
45548;SDS011;31270;48.328;10.096;2023-12-20T12:42:37;2.73;;;1.80;;
45548;SDS011;31270;48.328;10.096;2023-12-20T12:45:03;3.43;;;2.07;;
45548;SDS011;31270;48.328;10.096;2023-12-20T12:47:30;5.87;;;2.10;;
45548;SDS011;31270;48.328;10.096;2023-12-20T12:49:56;2.47;;;2.27;;
45548;SDS011;31270;48.328;10.096;2023-12-20T12:52:22;3.40;;;2.40;;
45548;SDS011;31270;48.328;10.096;2023-12-20T12:54:48;3.70;;;2.37;;
45548;SDS011;31270;48.328;10.096;2023-12-20T12:57:14;3.30;;;2.43;;
45548;SDS011;31270;48.328;10.096;2023-12-20T12:59:41;5.40;;;2.00;;
45548;SDS011;31270;48.328;10.096;2023-12-20T13:02:07;3.20;;;2.23;;
45548;SDS011;31270;48.328;10.096;2023-12-20T13:04:33;2.83;;;2.20;;
45548;SDS011;31270;48.328;10.096;2023-12-20T13:06:59;3.00;;;2.30;;
45548;SDS011;31270;48.328;10.096;2023-12-20T13:09:25;3.57;;;2.47;;
45548;SDS011;31270;48.328;10.096;2023-12-20T13:11:50;3.23;;;2.40;;
45548;SDS011;31270;48.328;10.096;2023-12-20T13:14:16;2.30;;;1.90;;
45548;SDS011;31270;48.328;10.096;2023-12-20T13:16:42;3.07;;;2.27;;
45548;SDS011;31270;48.328;10.096;2023-12-20T13:19:08;3.03;;;2.30;;
45548;SDS011;31270;48.328;10.096;2023-12-20T13:21:35;3.63;;;2.43;;
45548;SDS011;31270;48.328;10.096;2023-12-20T13:24:00;3.47;;;2.60;;
45548;SDS011;31270;48.328;10.096;2023-12-20T13:26:26;4.60;;;2.00;;
45548;SDS011;31270;48.328;10.096;2023-12-20T13:28:52;7.37;;;2.50;;
45548;SDS011;31270;48.328;10.096;2023-12-20T13:31:19;3.00;;;2.20;;
45548;SDS011;31270;48.328;10.096;2023-12-20T13:33:45;4.07;;;2.70;;
45548;SDS011;31270;48.328;10.096;2023-12-20T13:36:11;2.80;;;2.33;;
45548;SDS011;31270;48.328;10.096;2023-12-20T13:38:37;3.93;;;2.30;;
45548;SDS011;31270;48.328;10.096;2023-12-20T13:41:02;4.73;;;2.70;;
45548;SDS011;31270;48.328;10.096;2023-12-20T13:43:29;7.40;;;2.87;;
45548;SDS011;31270;48.328;10.096;2023-12-20T13:45:57;3.53;;;2.93;;
45548;SDS011;31270;48.328;10.096;2023-12-20T13:48:23;3.70;;;2.50;;
45548;SDS011;31270;48.328;10.096;2023-12-20T13:50:49;3.83;;;2.40;;
45548;SDS011;31270;48.328;10.096;2023-12-20T13:53:14;3.50;;;2.23;;
45548;SDS011;31270;48.328;10.096;2023-12-20T13:55:40;5.80;;;2.30;;
45548;SDS011;31270;48.328;10.096;2023-12-20T13:58:06;4.73;;;2.37;;
45548;SDS011;31270;48.328;10.096;2023-12-20T14:00:31;3.40;;;2.30;;
45548;SDS011;31270;48.328;10.096;2023-12-20T14:03:00;4.67;;;2.57;;
45548;SDS011;31270;48.328;10.096;2023-12-20T14:05:26;2.40;;;2.00;;
45548;SDS011;31270;48.328;10.096;2023-12-20T14:07:53;2.97;;;2.23;;
45548;SDS011;31270;48.328;10.096;2023-12-20T14:10:18;3.37;;;2.00;;
45548;SDS011;31270;48.328;10.096;2023-12-20T14:12:44;4.57;;;2.43;;
45548;SDS011;31270;48.328;10.096;2023-12-20T14:15:10;3.30;;;2.37;;
45548;SDS011;31270;48.328;10.096;2023-12-20T14:17:38;4.17;;;2.23;;
45548;SDS011;31270;48.328;10.096;2023-12-20T14:20:08;3.70;;;2.60;;
45548;SDS011;31270;48.328;10.096;2023-12-20T14:22:34;3.80;;;2.17;;
45548;SDS011;31270;48.328;10.096;2023-12-20T14:25:01;2.80;;;2.07;;
45548;SDS011;31270;48.328;10.096;2023-12-20T14:27:27;3.30;;;2.07;;
45548;SDS011;31270;48.328;10.096;2023-12-20T14:29:53;5.77;;;2.00;;
45548;SDS011;31270;48.328;10.096;2023-12-20T14:32:19;5.03;;;2.03;;